Time;durP1;ratioP1;P1;durP2;ratioP2;P2;SDS_P1;SDS_P2;PMS_P1;PMS_P2;Temp;Humidity;BMP_temperature;BMP_pressure;BME280_temperature;BME280_humidity;BME280_pressure;Samples;Min_cycle;Max_cycle;Signal;HPM_P1;HPM_P2
2023/09/26 00:00:01;;;;;;;2.62;0.80;;;;;;;19.54;60.24;100434.56;5271048;27;20037;-96
2023/09/26 00:02:30;;;;;;;0.00;0.00;;;;;;;19.61;60.24;100435.88;5290202;27;20060;-96
2023/09/26 00:04:58;;;;;;;0.30;0.30;;;;;;;19.38;60.23;100438.97;5289845;27;20361;-96
2023/09/26 00:07:23;;;;;;;7.28;0.65;;;;;;;19.32;60.23;100437.53;5272142;27;20044;-96
2023/09/26 00:09:49;;;;;;;0.60;0.28;;;;;;;19.28;60.22;100436.87;5293563;27;20102;-95
2023/09/26 00:12:15;;;;;;;0.00;0.00;;;;;;;19.32;60.23;100435.75;5275453;27;20070;-96
2023/09/26 00:14:46;;;;;;;0.50;0.50;;;;;;;19.23;60.21;100435.44;5309837;27;20110;-96
2023/09/26 00:17:17;;;;;;;1.55;1.08;;;;;;;19.26;60.23;100438.75;5276090;27;20053;-96
2023/09/26 00:19:47;;;;;;;0.65;0.65;;;;;;;19.36;60.23;100441.69;5298088;27;20025;-96
2023/09/26 00:22:13;;;;;;;0.15;0.15;;;;;;;19.25;60.22;100441.47;5278641;27;20061;-96
2023/09/26 00:24:41;;;;;;;0.60;0.57;;;;;;;19.25;60.23;100437.06;5275105;27;20074;-96
2023/09/26 00:27:23;;;;;;;0.40;0.40;;;;;;;19.44;60.23;100433.37;5283806;27;20127;-96
2023/09/26 00:30:10;;;;;;;20.98;0.82;;;;;;;19.26;60.23;100425.56;5335027;26;20070;-96
2023/09/26 00:32:38;;;;;;;0.20;0.20;;;;;;;19.28;60.23;100434.22;5270130;27;20437;-93
2023/09/26 00:35:12;;;;;;;0.20;0.20;;;;;;;19.13;60.22;100437.72;5288135;27;20056;-94
2023/09/26 00:37:41;;;;;;;0.00;0.00;;;;;;;19.05;60.21;100432.03;5271210;27;20059;-94
2023/09/26 00:40:17;;;;;;;0.03;0.03;;;;;;;19.02;60.22;100424.31;5269271;27;20685;-95
2023/09/26 00:42:48;;;;;;;0.62;0.45;;;;;;;19.01;60.22;100431.38;5273215;27;20436;-95
2023/09/26 00:45:14;;;;;;;0.25;0.25;;;;;;;19.07;60.21;100430.16;5272203;27;20052;-95
2023/09/26 00:47:43;;;;;;;1.58;0.40;;;;;;;19.22;60.22;100426.66;5300351;26;20039;-95
2023/09/26 00:50:12;;;;;;;0.27;0.27;;;;;;;19.08;60.21;100426.59;5277702;27;20609;-96
2023/09/26 00:52:54;;;;;;;0.00;0.00;;;;;;;19.24;60.22;100423.94;5287728;27;20141;-95
2023/09/26 00:55:28;;;;;;;0.47;0.47;;;;;;;18.92;60.20;100428.38;5271730;27;20104;-94
2023/09/26 00:57:54;;;;;;;0.75;0.75;;;;;;;18.97;60.20;100423.72;5269807;27;20048;-95
2023/09/26 01:00:22;;;;;;;0.05;0.05;;;;;;;18.92;60.21;100426.59;5286960;27;20132;-95
2023/09/26 01:02:50;;;;;;;0.52;0.32;;;;;;;18.91;60.20;100429.31;5268408;27;20707;-96
2023/09/26 01:05:18;;;;;;;0.13;0.13;;;;;;;18.89;60.20;100421.47;5287294;27;20056;-95
2023/09/26 01:11:23;;;;;;;;;;;;;;;;;;;;;
2023/09/26 01:14:19;;;;;;;1.35;0.98;;;;;;;18.98;60.21;100428.06;5314520;27;35217;-96
2023/09/26 01:17:03;;;;;;;0.98;0.77;;;;;;;18.92;60.21;100426.59;5299142;27;20063;-96
2023/09/26 01:19:55;;;;;;;1.65;0.65;;;;;;;19.02;60.22;100421.66;5295693;27;20164;-96
2023/09/26 01:22:59;;;;;;;0.08;0.08;;;;;;;18.84;60.20;100427.97;5294650;27;20025;-96
2023/09/26 01:26:17;;;;;;;0.15;0.15;;;;;;;18.62;60.18;100433.53;5295472;27;20032;-95
2023/09/26 01:28:48;;;;;;;0.20;0.20;;;;;;;18.75;60.19;100433.75;5313157;27;20841;-96
2023/09/26 01:31:21;;;;;;;0.43;0.30;;;;;;;18.75;60.20;100428.47;5292320;27;20106;-96
2023/09/26 01:33:46;;;;;;;0.13;0.13;;;;;;;18.66;60.19;100430.66;5269708;27;20061;-94
2023/09/26 01:36:12;;;;;;;0.13;0.05;;;;;;;18.81;60.20;100421.06;5263835;27;20071;-95
2023/09/26 01:38:37;;;;;;;4.95;1.77;;;;;;;18.68;60.19;100430.56;5245932;27;20359;-94
2023/09/26 01:41:05;;;;;;;3.08;1.70;;;;;;;18.62;60.18;100425.62;5246174;27;20115;-95
2023/09/26 01:43:31;;;;;;;0.77;0.68;;;;;;;18.58;60.19;100424.94;5248284;27;20044;-95
2023/09/26 01:45:56;;;;;;;0.10;0.10;;;;;;;18.80;60.20;100426.44;5247257;27;20342;-95
2023/09/26 01:48:27;;;;;;;0.00;0.00;;;;;;;18.88;60.20;100416.28;5247107;27;20079;-96
2023/09/26 01:50:53;;;;;;;2.20;1.27;;;;;;;18.54;60.18;100427.81;5249614;27;20451;-96
2023/09/26 01:53:27;;;;;;;0.43;0.43;;;;;;;18.59;60.18;100429.28;5285986;27;20069;-96
2023/09/26 01:55:53;;;;;;;0.17;0.17;;;;;;;18.60;60.19;100423.06;5251571;27;20039;-96
2023/09/26 01:58:23;;;;;;;0.70;0.65;;;;;;;18.55;60.19;100424.25;5252809;27;20080;-96
2023/09/26 02:00:48;;;;;;;0.95;0.88;;;;;;;18.68;60.19;100426.16;5253831;27;20073;-96
2023/09/26 02:03:17;;;;;;;0.62;0.62;;;;;;;18.67;60.19;100424.44;5252011;27;20053;-96
2023/09/26 02:05:44;;;;;;;0.52;0.52;;;;;;;18.52;60.18;100425.28;5253298;27;20072;-96
2023/09/26 02:10:45;;;;;;;1.45;1.15;;;;;;;18.61;60.18;100430.03;5344720;26;20062;-96
2023/09/26 02:13:14;;;;;;;1.02;0.30;;;;;;;18.61;60.19;100423.91;5295727;26;20369;-96
2023/09/26 02:15:42;;;;;;;0.37;0.37;;;;;;;18.60;60.19;100425.69;5294702;26;20060;-95
2023/09/26 02:18:16;;;;;;;0.90;0.90;;;;;;;18.55;60.19;100427.75;5317774;26;20076;-96
2023/09/26 02:21:04;;;;;;;0.60;0.60;;;;;;;18.75;60.20;100425.84;5319632;26;20051;-96
2023/09/26 02:23:43;;;;;;;0.28;0.28;;;;;;;18.63;60.19;100425.56;5321572;26;20029;-96
2023/09/26 02:29:12;;;;;;;0.52;0.47;;;;;;;18.75;60.19;100424.06;5315992;26;20024;-96
2023/09/26 02:31:55;;;;;;;0.82;0.82;;;;;;;18.83;60.20;100421.84;5319491;26;20044;-96
2023/09/26 02:40:00;;;;;;;0.55;0.55;;;;;;;18.94;60.21;100429.16;5314528;27;20031;-96
2023/09/26 02:42:35;;;;;;;0.25;0.25;;;;;;;18.85;60.19;100427.03;5288130;27;20053;-95
2023/09/26 02:45:02;;;;;;;0.28;0.28;;;;;;;18.91;60.20;100430.16;5249017;27;20088;-95
2023/09/26 02:47:27;;;;;;;12.60;1.80;;;;;;;18.95;60.21;100433.50;5248277;27;20120;-94
2023/09/26 02:49:55;;;;;;;7.43;0.50;;;;;;;19.10;60.21;100427.34;5248233;27;20106;-93
2023/09/26 02:52:22;;;;;;;0.55;0.55;;;;;;;18.94;60.21;100431.81;5265834;27;20050;-95
2023/09/26 02:54:48;;;;;;;13.77;2.40;;;;;;;18.93;60.21;100428.31;5247463;27;20084;-94
2023/09/26 02:57:13;;;;;;;0.10;0.10;;;;;;;19.00;60.20;100432.31;5246718;27;20064;-93
2023/09/26 02:59:39;;;;;;;0.20;0.20;;;;;;;19.07;60.21;100426.69;5282540;27;20022;-95
2023/09/26 03:02:06;;;;;;;0.60;0.52;;;;;;;19.16;60.22;100434.91;5246809;27;20068;-94
2023/09/26 03:04:31;;;;;;;0.90;0.35;;;;;;;19.20;60.22;100427.69;5247508;27;20078;-94
2023/09/26 03:10:36;;;;;;;0.75;0.25;;;;;;;19.32;60.23;100426.97;5267326;27;20124;-93
2023/09/26 03:13:02;;;;;;;0.52;0.30;;;;;;;19.32;60.23;100426.97;5249009;27;20101;-95
2023/09/26 03:15:31;;;;;;;2.17;1.10;;;;;;;19.35;60.23;100431.22;5249077;27;20128;-94
2023/09/26 03:17:56;;;;;;;0.95;0.80;;;;;;;19.43;60.23;100429.87;5248953;27;20079;-94
2023/09/26 03:20:22;;;;;;;0.45;0.45;;;;;;;19.43;60.23;100426.38;5249777;27;20060;-93
2023/09/26 03:22:49;;;;;;;1.27;1.05;;;;;;;19.35;60.23;100428.59;5249750;27;20064;-94
2023/09/26 03:25:14;;;;;;;0.95;0.73;;;;;;;19.44;60.23;100428.94;5250013;27;20071;-94
2023/09/26 03:28:03;;;;;;;0.30;0.30;;;;;;;19.44;60.23;100423.66;5254507;27;20029;-95
2023/09/26 03:30:30;;;;;;;0.30;0.30;;;;;;;19.42;60.23;100427.31;5301475;27;20052;-94
2023/09/26 03:36:28;;;;;;;0.65;0.65;;;;;;;19.60;60.24;100431.53;5325078;27;20748;-95
2023/09/26 03:38:54;;;;;;;0.10;0.10;;;;;;;19.52;60.23;100428.47;5287386;27;20401;-94
2023/09/26 03:41:19;;;;;;;0.73;0.50;;;;;;;19.48;60.24;100429.59;5305537;27;20076;-95
2023/09/26 03:43:44;;;;;;;0.30;0.30;;;;;;;19.42;60.23;100436.09;5306043;27;20072;-95
2023/09/26 03:46:10;;;;;;;0.45;0.45;;;;;;;19.47;60.24;100436.66;5287321;27;20064;-94
2023/09/26 03:48:41;;;;;;;0.65;0.65;;;;;;;19.68;60.24;100431.97;5305462;27;20147;-95
2023/09/26 03:51:10;;;;;;;0.43;0.43;;;;;;;19.77;60.24;100430.56;5268470;27;20071;-93
2023/09/26 03:53:37;;;;;;;1.98;1.23;;;;;;;19.73;60.25;100436.97;5286686;27;20607;-94
2023/09/26 03:56:03;;;;;;;0.25;0.25;;;;;;;19.89;60.25;100430.69;5286356;27;20068;-93
2023/09/26 03:58:28;;;;;;;17.75;1.80;;;;;;;19.81;60.25;100429.44;5286353;27;20480;-92
2023/09/26 04:01:23;;;;;;;0.82;0.82;;;;;;;19.82;60.25;100433.78;5267987;27;20416;-95
2023/09/26 04:03:48;;;;;;;0.30;0.30;;;;;;;19.84;60.25;100434.53;5305088;27;20078;-94
2023/09/26 04:06:31;;;;;;;2.05;1.37;;;;;;;19.85;60.25;100425.66;5305358;27;20120;-96
2023/09/26 04:08:56;;;;;;;0.57;0.57;;;;;;;19.77;60.24;100426.13;5287567;27;20080;-96
2023/09/26 04:11:30;;;;;;;0.32;0.32;;;;;;;20.00;60.25;100426.56;5289394;27;20101;-96
2023/09/26 04:13:56;;;;;;;0.47;0.47;;;;;;;20.01;60.25;100429.09;5288118;27;20040;-95
2023/09/26 04:16:21;;;;;;;0.62;0.62;;;;;;;19.82;60.25;100431.13;5287037;27;20100;-95
2023/09/26 04:18:47;;;;;;;0.62;0.62;;;;;;;19.96;60.26;100430.31;5304779;27;20053;-94
2023/09/26 04:21:16;;;;;;;1.55;0.55;;;;;;;19.97;60.25;100430.22;5286784;27;20119;-94
2023/09/26 04:23:41;;;;;;;0.60;0.60;;;;;;;19.97;60.26;100432.88;5287091;27;20048;-93
2023/09/26 04:26:14;;;;;;;0.20;0.20;;;;;;;19.89;60.25;100420.13;5304808;27;20370;-94
2023/09/26 04:28:43;;;;;;;1.87;0.85;;;;;;;19.74;60.24;100431.59;5286762;27;20103;-92
2023/09/26 04:35:05;;;;;;;0.15;0.13;;;;;;;19.84;60.25;100437.16;5312368;27;20060;-95
2023/09/26 04:37:41;;;;;;;0.68;0.60;;;;;;;19.74;60.24;100443.97;4539364;27;20536636;-94
2023/09/26 04:40:30;;;;;;;0.65;0.65;;;;;;;19.78;60.26;100438.41;5305136;27;20071;-95
2023/09/26 04:43:42;;;;;;;2.00;1.80;;;;;;;19.80;60.25;100446.22;5306720;27;20047;-95
2023/09/26 04:46:41;;;;;;;1.42;1.25;;;;;;;19.90;60.25;100448.25;5301554;27;20084;-95
2023/09/26 04:49:17;;;;;;;0.43;0.43;;;;;;;19.86;60.26;100448.50;5298777;26;20127;-95
2023/09/26 04:51:47;;;;;;;0.00;0.00;;;;;;;19.84;60.25;100456.53;5285159;27;20059;-96
2023/09/26 04:54:44;;;;;;;3.10;0.55;;;;;;;19.86;60.26;100459.91;5290398;27;20127;-93
2023/09/26 04:57:20;;;;;;;0.68;0.68;;;;;;;19.92;60.26;100461.38;5289544;27;20437;-96
2023/09/26 04:59:56;;;;;;;1.37;1.27;;;;;;;19.75;60.25;100464.16;5287137;27;20065;-95
2023/09/26 05:05:36;;;;;;;1.05;1.02;;;;;;;19.87;60.26;100461.66;5305172;27;20112;-95
2023/09/26 05:08:12;;;;;;;0.98;0.98;;;;;;;19.79;60.26;100460.37;5272149;27;20076;-95
2023/09/26 05:11:00;;;;;;;0.93;0.90;;;;;;;19.78;60.24;100461.31;5288482;27;20135;-94
2023/09/26 05:14:24;;;;;;;1.95;0.77;;;;;;;19.79;60.26;100466.50;5272398;27;20021;-94
2023/09/26 05:41:53;;;;;;;;;;;;;;;;;;;;;
2023/09/26 05:45:15;;;;;;;;;;;;;;;;;;;;;
2023/09/26 05:52:19;;;;;;;1.05;0.77;;;;;;;21.38;60.33;100457.53;5070811;28;20804;-95
2023/09/26 06:02:16;;;;;;;;;;;;;;;;;;;;;
2023/09/26 06:05:02;;;;;;;0.00;0.00;;;;;;;21.88;60.36;100449.81;5176643;27;35203;-95
2023/09/26 06:07:56;;;;;;;0.60;0.60;;;;;;;22.04;60.36;100448.72;5182236;27;20059;-95
2023/09/26 06:11:04;;;;;;;1.10;0.85;;;;;;;21.98;60.36;100451.72;5156632;27;20028;-95
2023/09/26 06:13:45;;;;;;;;;;;;;;;;;;;;;
2023/09/26 06:17:01;;;;;;;;;;;;;;;;;;;;;
2023/09/26 06:19:47;;;;;;;;;;;;;;;;;;;;;
2023/09/26 06:22:13;;;;;;;1.02;0.85;;;;;;;22.39;60.38;100455.16;5267547;27;34979;-94
2023/09/26 06:24:42;;;;;;;1.02;0.98;;;;;;;22.34;60.39;100452.84;5246398;27;20069;-94
2023/09/26 06:27:23;;;;;;;;;;;;;;;;;;;;;
2023/09/26 06:32:51;;;;;;;0.52;0.52;;;;;;;22.50;60.38;100455.28;5285537;27;20057;-94
2023/09/26 06:35:19;;;;;;;0.95;0.73;;;;;;;22.55;60.39;100455.78;5251876;27;20061;-94
2023/09/26 06:37:52;;;;;;;0.13;0.13;;;;;;;22.76;60.40;100448.13;5267984;27;20056;-94
2023/09/26 06:40:27;;;;;;;;;;;;;;;;;;;;;
2023/09/26 06:43:13;;;;;;;0.62;0.62;;;;;;;22.67;60.40;100449.59;5304856;27;36712;-95
2023/09/26 06:45:55;;;;;;;0.52;0.37;;;;;;;22.74;60.40;100456.19;5270366;27;20040;-94
2023/09/26 06:48:47;;;;;;;0.93;0.60;;;;;;;22.67;60.40;100449.59;5288435;27;20068;-94
2023/09/26 06:51:38;;;;;;;0.52;0.52;;;;;;;22.74;60.41;100453.53;5277530;27;20061;-94
2023/09/26 06:54:26;;;;;;;1.50;0.77;;;;;;;22.86;60.41;100450.03;5259062;27;20115;-94
2023/09/26 06:56:52;;;;;;;0.85;0.60;;;;;;;22.97;60.42;100449.28;5241195;27;20095;-94
2023/09/26 06:59:20;;;;;;;8.57;0.73;;;;;;;23.00;60.41;100453.50;5241073;27;20069;-95
2023/09/26 07:06:03;;;;;;;0.73;0.57;;;;;;;23.14;60.43;100445.38;5251104;27;20056;-94
2023/09/26 07:08:22;;;;;;;;;;;;;;;;;;;;;
2023/09/26 07:11:23;;;;;;;;;;;;;;;;;;;;;
2023/09/26 07:13:54;;;;;;;2.12;1.15;;;;;;;23.40;60.43;100454.06;5246252;27;35769;-94
2023/09/26 07:16:44;;;;;;;0.52;0.43;;;;;;;23.47;60.44;100461.50;5241688;27;20049;-94
2023/09/26 07:19:45;;;;;;;0.30;0.30;;;;;;;23.47;60.44;100448.22;5241412;27;20072;-95
2023/09/26 07:23:06;;;;;;;0.75;0.75;;;;;;;23.45;60.44;100455.44;5280852;27;20060;-94
2023/09/26 07:25:42;;;;;;;1.62;1.52;;;;;;;23.60;60.45;100453.47;5293596;27;20053;-95
2023/09/26 07:28:26;;;;;;;;;;;;;;;;;;;;;
2023/09/26 07:31:10;;;;;;;0.37;0.37;;;;;;;23.51;60.45;100457.63;5304476;26;36634;-93
2023/09/26 07:33:59;;;;;;;8.95;1.15;;;;;;;23.49;60.44;100459.56;5294488;27;20065;-94
2023/09/26 07:36:29;;;;;;;0.88;0.52;;;;;;;23.66;60.44;100458.34;5302754;26;20059;-95
2023/09/26 07:42:31;;;;;;;0.32;0.32;;;;;;;23.89;60.46;100465.41;5295159;27;20057;-94
2023/09/26 07:45:51;;;;;;;0.20;0.20;;;;;;;23.89;60.46;100473.38;5290026;27;20039;-95
2023/09/26 07:49:02;;;;;;;0.20;0.20;;;;;;;23.87;60.46;100474.47;5304352;27;20417;-94
2023/09/26 07:51:37;;;;;;;1.48;1.15;;;;;;;23.99;60.47;100480.66;5283970;27;20049;-95
2023/09/26 07:54:54;;;;;;;1.27;1.17;;;;;;;24.04;60.47;100479.34;5305315;27;20725;-95
2023/09/26 07:57:42;;;;;;;0.17;0.17;;;;;;;24.04;60.47;100479.34;5277013;27;20052;-96
2023/09/26 08:01:06;;;;;;;0.55;0.55;;;;;;;24.03;60.47;100484.78;5287376;27;20061;-95
2023/09/26 08:03:54;;;;;;;;;;;;;;;;;;;;;
2023/09/26 08:06:24;;;;;;;0.88;0.88;;;;;;;24.03;60.47;100482.97;5305926;27;36336;-95
2023/09/26 08:09:13;;;;;;;14.13;4.93;;;;;;;24.16;60.47;100486.41;5288020;27;20028;-95
2023/09/26 08:12:20;;;;;;;0.97;0.80;;;;;;;24.36;60.48;100484.03;5287180;27;20061;-94
2023/09/26 08:14:45;;;;;;;0.35;0.35;;;;;;;24.34;60.49;100492.13;5304225;27;20021;-94
2023/09/26 08:18:04;;;;;;;;;;;;;;;;;;;;;
2023/09/26 08:24:10;;;;;;;1.33;1.10;;;;;;;24.48;60.50;100488.41;5270951;27;20083;-95
2023/09/26 08:34:17;;;;;;;0.68;0.65;;;;;;;24.73;60.51;100490.81;5189810;27;20071;-96
2023/09/26 08:37:02;;;;;;;;;;;;;;;;;;;;;
2023/09/26 08:43:12;;;;;;;2.10;1.50;;;;;;;24.99;60.53;100482.59;5217852;27;20097;-95
2023/09/26 08:46:03;;;;;;;1.05;0.98;;;;;;;25.15;60.54;100488.41;5220858;27;20189;-95
2023/09/26 08:49:30;;;;;;;;;;;;;;;;;;;;;
2023/09/26 08:52:58;;;;;;;;;;;;;;;;;;;;;
2023/09/26 08:56:03;;;;;;;;;;;;;;;;;;;;;
2023/09/26 08:59:10;;;;;;;;;;;;;;;;;;;;;
2023/09/26 12:07:03;;;;;;;2.67;1.60;;;;;;;30.44;60.81;100312.19;5325146;26;931796;-96
2023/09/26 12:09:29;;;;;;;0.37;0.37;;;;;;;30.51;60.83;100305.16;5332764;26;20112;-96
2023/09/26 12:12:12;;;;;;;1.52;1.42;;;;;;;30.62;60.82;100296.84;5342928;26;20079;-96
2023/09/26 12:14:45;;;;;;;0.37;0.37;;;;;;;30.52;60.82;100296.97;5358427;26;20027;-96
2023/09/26 12:17:11;;;;;;;3.35;1.70;;;;;;;30.51;60.81;100286.34;5342903;26;20031;-96
2023/09/26 12:19:40;;;;;;;0.90;0.90;;;;;;;30.54;60.82;100294.09;5382614;26;20087;-96
2023/09/26 12:22:13;;;;;;;0.73;0.37;;;;;;;30.46;60.82;100292.22;5359496;26;20352;-96
2023/09/26 12:24:46;;;;;;;1.27;0.52;;;;;;;30.47;60.82;100290.38;5346137;26;20083;-96
2023/09/26 12:27:14;;;;;;;1.60;1.50;;;;;;;30.43;60.81;100291.72;5396036;26;20051;-96
2023/09/26 12:29:40;;;;;;;0.55;0.37;;;;;;;30.37;60.81;100285.16;5358547;26;20052;-96
2023/09/26 12:32:07;;;;;;;0.62;0.60;;;;;;;30.40;60.81;100282.13;5341908;26;20116;-96
2023/09/26 12:34:32;;;;;;;0.50;0.50;;;;;;;30.60;60.83;100277.31;5337258;26;20106;-96
2023/09/26 12:37:07;;;;;;;0.65;0.65;;;;;;;30.51;60.83;100275.59;5333830;26;20160;-96
2023/09/26 12:39:32;;;;;;;0.62;0.50;;;;;;;30.50;60.82;100276.59;5344384;26;20020;-96
2023/09/26 12:42:03;;;;;;;0.55;0.50;;;;;;;30.62;60.83;100291.47;5342412;26;20094;-96
2023/09/26 12:44:40;;;;;;;5.82;0.70;;;;;;;30.36;60.82;100285.31;5358179;26;20063;-96
2023/09/26 12:47:16;;;;;;;0.20;0.20;;;;;;;30.45;60.83;100278.94;5346367;26;20024;-96
2023/09/26 12:49:46;;;;;;;3.47;0.47;;;;;;;30.33;60.81;100286.50;5376235;26;20102;-96
2023/09/26 12:52:12;;;;;;;1.45;0.90;;;;;;;30.07;60.81;100277.69;5351647;26;20048;-96
2023/09/26 12:54:38;;;;;;;1.15;0.95;;;;;;;30.13;60.81;100275.19;5343975;26;20064;-96
2023/09/26 12:57:05;;;;;;;0.80;0.80;;;;;;;30.25;60.81;100271.16;5336286;26;20128;-96
2023/09/26 12:59:31;;;;;;;15.90;1.37;;;;;;;30.41;60.82;100269.53;5334845;26;20067;-96
2023/09/26 13:01:56;;;;;;;0.28;0.28;;;;;;;30.45;60.82;100266.38;5335039;26;20094;-96
2023/09/26 13:04:25;;;;;;;1.33;1.23;;;;;;;30.41;60.82;100272.22;5336150;26;20520;-96
2023/09/26 13:07:03;;;;;;;0.98;0.70;;;;;;;30.68;60.83;100269.28;5360987;26;20373;-96
2023/09/26 13:09:29;;;;;;;0.32;0.32;;;;;;;30.61;60.84;100262.06;5365526;26;20039;-96
2023/09/26 13:11:57;;;;;;;1.87;1.62;;;;;;;30.47;60.82;100266.19;5357408;26;20064;-96
2023/09/26 13:14:23;;;;;;;1.02;0.98;;;;;;;30.34;60.81;100268.53;5342175;26;20028;-96
2023/09/26 13:16:48;;;;;;;0.47;0.43;;;;;;;30.35;60.81;100264.84;5337849;26;20078;-96
2023/09/26 13:19:14;;;;;;;0.50;0.50;;;;;;;30.30;60.82;100269.88;5335447;26;20101;-96
2023/09/26 13:21:39;;;;;;;0.75;0.40;;;;;;;30.14;60.81;100252.69;5334980;26;20108;-96
2023/09/26 13:24:12;;;;;;;0.30;0.30;;;;;;;30.31;60.81;100261.66;5340771;26;20115;-96
2023/09/26 13:27:04;;;;;;;1.10;1.00;;;;;;;30.50;60.81;100255.94;5358015;26;20096;-96
2023/09/26 13:29:33;;;;;;;0.65;0.43;;;;;;;30.44;60.83;100263.84;5358408;26;20619;-96
2023/09/26 13:32:01;;;;;;;0.30;0.30;;;;;;;30.36;60.83;100255.78;5343230;26;20658;-96
2023/09/26 13:37:14;;;;;;;1.37;1.27;;;;;;;30.35;60.81;100254.09;5392051;26;20076;-95
2023/09/26 13:39:41;;;;;;;0.68;0.68;;;;;;;30.31;60.82;100255.44;5341611;26;20038;-96
2023/09/26 13:42:15;;;;;;;1.42;1.10;;;;;;;30.33;60.82;100248.06;5364272;26;20039;-96
2023/09/26 13:44:43;;;;;;;0.10;0.10;;;;;;;30.28;60.82;100261.09;5364128;26;20076;-96
2023/09/26 13:47:18;;;;;;;0.82;0.50;;;;;;;30.30;60.81;100251.91;5381034;26;20083;-96
2023/09/26 13:49:55;;;;;;;0.85;0.60;;;;;;;30.16;60.81;100253.38;5364432;26;20071;-96
2023/09/26 13:53:18;;;;;;;0.20;0.20;;;;;;;30.23;60.81;100249.00;5314150;26;20095;-96
2023/09/26 13:59:54;;;;;;;;;;;;;;;;;;;;;
2023/09/26 15:24:58;;;;;;;1.85;1.02;;;;;;;28.88;60.75;100239.00;5353854;26;20076;-96
2023/09/26 15:27:39;;;;;;;0.10;0.10;;;;;;;28.79;60.74;100232.66;5333527;26;20074;-93
2023/09/26 15:30:06;;;;;;;0.20;0.20;;;;;;;28.85;60.75;100234.75;5329298;26;20048;-93
2023/09/26 15:32:55;;;;;;;1.12;0.90;;;;;;;28.54;60.73;100230.75;5329571;26;20119;-94
2023/09/26 15:35:20;;;;;;;3.37;0.43;;;;;;;28.62;60.74;100236.19;5351299;26;20440;-93
2023/09/26 15:37:45;;;;;;;1.65;1.10;;;;;;;28.67;60.74;100233.91;5347185;26;20097;-93
2023/09/26 15:40:13;;;;;;;0.55;0.55;;;;;;;28.68;60.75;100236.44;5329497;26;20062;-94
2023/09/26 15:43:01;;;;;;;;;;;;;;;;;;;;;
2023/09/26 15:45:42;;;;;;;;;;;;;;;;;;;;;
2023/09/26 15:48:12;;;;;;;1.15;0.98;;;;;;;28.23;60.72;100233.78;5347389;26;36383;-95
2023/09/26 15:50:43;;;;;;;0.47;0.47;;;;;;;28.21;60.71;100237.59;5328822;26;20434;-95
2023/09/26 15:53:32;;;;;;;0.40;0.40;;;;;;;28.19;60.71;100243.09;5347900;26;20064;-93
2023/09/26 15:56:18;;;;;;;1.48;0.88;;;;;;;28.12;60.71;100242.00;5347265;26;20133;-91
2023/09/26 15:58:45;;;;;;;6.12;2.08;;;;;;;27.95;60.70;100237.47;5329592;26;20048;-93
2023/09/26 16:01:11;;;;;;;6.93;2.80;;;;;;;27.93;60.70;100237.63;5329132;26;20111;-94
2023/09/26 16:03:56;;;;;;;0.20;0.20;;;;;;;27.77;60.69;100243.59;5328831;26;20068;-93
2023/09/26 16:06:34;;;;;;;0.47;0.43;;;;;;;27.64;60.68;100247.56;5346733;26;20068;-93
2023/09/26 16:09:07;;;;;;;0.88;0.45;;;;;;;27.49;60.67;100252.53;5330458;26;20070;-94
2023/09/26 16:11:53;;;;;;;;;;;;;;;;;;;;;
2023/09/26 16:14:29;;;;;;;0.28;0.28;;;;;;;27.21;60.67;100246.28;5349015;26;34929;-90
2023/09/26 16:17:04;;;;;;;;;;;;;;;;;;;;;
2023/09/26 16:19:33;;;;;;;0.43;0.43;;;;;;;27.01;60.65;100253.47;5348639;26;35146;-95
2023/09/26 16:22:05;;;;;;;2.45;2.25;;;;;;;26.82;60.64;100254.28;5329921;26;20056;-94
2023/09/26 16:24:35;;;;;;;0.15;0.15;;;;;;;26.77;60.64;100253.87;5347868;26;20071;-94
2023/09/26 16:27:09;;;;;;;0.35;0.35;;;;;;;26.69;60.64;100263.56;5329402;26;20102;-93
2023/09/26 16:29:59;;;;;;;0.55;0.55;;;;;;;26.57;60.64;100257.50;5348446;26;20480;-94
2023/09/26 16:32:42;;;;;;;0.62;0.47;;;;;;;26.41;60.63;100258.03;5347948;26;20093;-94
2023/09/26 16:35:33;;;;;;;;;;;;;;;;;;;;;
2023/09/26 16:38:07;;;;;;;2.80;1.58;;;;;;;26.27;60.62;100258.44;5349762;26;35847;-93
2023/09/26 16:40:34;;;;;;;0.50;0.47;;;;;;;25.96;60.61;100269.12;5328730;26;20024;-95
2023/09/26 16:43:00;;;;;;;2.08;1.20;;;;;;;25.81;60.59;100262.50;5347402;26;20754;-94
2023/09/26 16:45:35;;;;;;;3.80;2.28;;;;;;;25.91;60.59;100263.34;5328779;26;20071;-92
2023/09/26 16:48:01;;;;;;;0.70;0.70;;;;;;;25.81;60.59;100270.50;5329189;26;20395;-94
2023/09/26 16:50:29;;;;;;;1.25;0.75;;;;;;;25.50;60.57;100282.06;5329258;26;20048;-93
2023/09/26 16:52:57;;;;;;;0.37;0.30;;;;;;;25.18;60.56;100283.00;5329738;26;20063;-93
2023/09/26 16:55:23;;;;;;;3.90;1.15;;;;;;;25.22;60.57;100275.59;5349333;26;20074;-92
2023/09/26 16:57:48;;;;;;;0.15;0.15;;;;;;;25.17;60.57;100277.78;5338963;26;20057;-92
2023/09/26 17:00:16;;;;;;;1.05;0.65;;;;;;;25.04;60.55;100277.97;5343675;26;20052;-94
2023/09/26 17:02:46;;;;;;;1.27;1.10;;;;;;;24.86;60.54;100276.84;5338168;26;20044;-93
2023/09/26 17:05:12;;;;;;;1.70;1.35;;;;;;;24.56;60.53;100290.84;5330254;26;20109;-93
2023/09/26 17:07:40;;;;;;;1.30;0.77;;;;;;;24.39;60.52;100285.09;5329296;26;20099;-93
2023/09/26 17:10:10;;;;;;;0.25;0.25;;;;;;;24.18;60.50;100287.63;5347258;26;20035;-94
2023/09/26 17:12:40;;;;;;;0.88;0.88;;;;;;;24.12;60.51;100288.09;5347665;26;20467;-92
2023/09/26 17:15:09;;;;;;;1.27;1.17;;;;;;;24.22;60.51;100290.88;5329067;26;20135;-92
2023/09/26 17:17:57;;;;;;;0.47;0.47;;;;;;;24.07;60.50;100295.59;5365374;26;20085;-92
2023/09/26 17:20:27;;;;;;;0.30;0.30;;;;;;;23.86;60.49;100307.91;5347275;26;20043;-94
2023/09/26 17:23:07;;;;;;;1.30;1.00;;;;;;;23.55;60.48;100309.44;5328297;26;20093;-96
2023/09/26 17:25:32;;;;;;;2.63;1.87;;;;;;;23.12;60.46;100310.03;5329310;26;20056;-94
2023/09/26 17:28:00;;;;;;;2.33;1.77;;;;;;;22.74;60.44;100312.88;5330420;26;20469;-94
2023/09/26 17:30:28;;;;;;;2.60;0.82;;;;;;;22.83;60.44;100312.22;5330513;26;20064;-95
2023/09/26 17:32:56;;;;;;;1.05;0.95;;;;;;;22.71;60.44;100315.72;5329627;26;20599;-92
2023/09/26 17:35:32;;;;;;;0.20;0.20;;;;;;;22.43;60.42;100319.53;5329683;26;20055;-94
2023/09/26 17:38:34;;;;;;;0.75;0.75;;;;;;;22.19;60.41;100329.25;5348036;26;20060;-95
2023/09/26 17:41:36;;;;;;;0.55;0.55;;;;;;;22.29;60.41;100322.37;5345359;26;20075;-92
2023/09/26 17:44:13;;;;;;;1.23;0.40;;;;;;;22.11;60.40;100329.81;5337773;26;20031;-94
2023/09/26 17:46:52;;;;;;;;;;;;;;;;;;;;;
2023/09/26 17:49:33;;;;;;;0.28;0.28;;;;;;;21.74;60.38;100324.38;5350572;26;35019;-94
2023/09/26 17:52:08;;;;;;;2.80;1.55;;;;;;;21.89;60.39;100332.25;5332701;26;20070;-95
2023/09/26 17:54:53;;;;;;;0.47;0.47;;;;;;;21.68;60.38;100332.75;5331239;26;20052;-95
2023/09/26 17:57:22;;;;;;;0.80;0.80;;;;;;;21.73;60.38;100337.75;5349387;26;20028;-95
2023/09/26 17:59:50;;;;;;;0.60;0.60;;;;;;;21.60;60.37;100337.75;5348690;26;20078;-95
2023/09/26 18:02:25;;;;;;;1.25;0.52;;;;;;;21.50;60.37;100334.00;5331071;26;20105;-94
2023/09/26 18:05:03;;;;;;;0.00;0.00;;;;;;;21.19;60.35;100337.00;5332759;26;20104;-96
2023/09/26 18:07:31;;;;;;;0.20;0.20;;;;;;;20.88;60.34;100341.69;5348589;26;20435;-96
2023/09/26 18:10:38;;;;;;;0.45;0.40;;;;;;;20.90;60.33;100334.50;5347996;26;20070;-95
2023/09/26 18:13:14;;;;;;;0.30;0.30;;;;;;;20.95;60.34;100336.84;5348124;26;20056;-95
2023/09/26 18:16:01;;;;;;;0.35;0.35;;;;;;;20.80;60.33;100333.38;5329954;26;20071;-95
2023/09/26 18:18:29;;;;;;;0.20;0.20;;;;;;;20.93;60.33;100338.72;5348794;26;20064;-95
2023/09/26 18:21:15;;;;;;;0.60;0.60;;;;;;;20.70;60.31;100340.22;5328173;26;20107;-95
2023/09/26 18:24:06;;;;;;;0.20;0.20;;;;;;;20.75;60.33;100338.13;5329396;26;20438;-96
2023/09/26 18:26:52;;;;;;;;;;;;;;;;;;;;;
2023/09/26 18:29:29;;;;;;;1.73;1.62;;;;;;;21.01;60.34;100337.25;5347825;26;36638;-94
2023/09/26 18:32:14;;;;;;;0.77;0.77;;;;;;;20.70;60.33;100342.88;5330523;26;20084;-94
2023/09/26 18:35:08;;;;;;;0.55;0.55;;;;;;;20.74;60.32;100347.84;5366108;26;20090;-94
2023/09/26 18:37:54;;;;;;;5.75;1.37;;;;;;;20.65;60.31;100350.25;5344927;26;20066;-94
2023/09/26 18:40:42;;;;;;;0.75;0.55;;;;;;;20.52;60.31;100348.38;5347154;26;20079;-95
2023/09/26 18:43:15;;;;;;;2.72;1.17;;;;;;;20.52;60.31;100353.66;5348741;26;20079;-94
2023/09/26 18:46:12;;;;;;;0.88;0.52;;;;;;;20.57;60.31;100353.38;5345568;26;20056;-93
2023/09/26 18:49:20;;;;;;;0.40;0.40;;;;;;;20.56;60.32;100350.81;5342472;26;20432;-94